sensor_id;sensor_type;location;lat;lon;timestamp;pressure;altitude;pressure_sealevel;temperature;humidity
8061;BME280;4073;42.626;25.386;2022-12-10T00:01:41;96796.50;;;6.37;100.00
8061;BME280;4073;42.626;25.386;2022-12-10T00:04:07;96785.38;;;6.40;100.00
8061;BME280;4073;42.626;25.386;2022-12-10T00:06:34;96781.69;;;6.41;100.00
8061;BME280;4073;42.626;25.386;2022-12-10T00:09:01;96775.06;;;6.43;100.00
8061;BME280;4073;42.626;25.386;2022-12-10T00:11:27;96770.84;;;6.47;100.00
8061;BME280;4073;42.626;25.386;2022-12-10T00:13:53;96756.44;;;6.38;100.00
8061;BME280;4073;42.626;25.386;2022-12-10T00:16:21;96772.59;;;6.37;100.00
8061;BME280;4073;42.626;25.386;2022-12-10T00:18:49;96770.50;;;6.39;100.00
8061;BME280;4073;42.626;25.386;2022-12-10T00:21:18;96777.97;;;6.42;100.00
8061;BME280;4073;42.626;25.386;2022-12-10T00:23:44;96765.97;;;6.34;100.00
8061;BME280;4073;42.626;25.386;2022-12-10T00:26:22;96754.00;;;6.32;100.00
8061;BME280;4073;42.626;25.386;2022-12-10T00:28:49;96762.53;;;6.34;100.00
8061;BME280;4073;42.626;25.386;2022-12-10T00:31:18;96764.91;;;6.35;100.00
8061;BME280;4073;42.626;25.386;2022-12-10T00:33:44;96765.72;;;6.36;100.00
8061;BME280;4073;42.626;25.386;2022-12-10T00:36:12;96768.09;;;6.32;100.00
8061;BME280;4073;42.626;25.386;2022-12-10T00:38:38;96766.47;;;6.31;100.00
8061;BME280;4073;42.626;25.386;2022-12-10T00:41:04;96766.19;;;6.28;100.00
8061;BME280;4073;42.626;25.386;2022-12-10T00:43:30;96772.84;;;6.30;100.00
8061;BME280;4073;42.626;25.386;2022-12-10T00:45:56;96771.53;;;6.33;100.00
8061;BME280;4073;42.626;25.386;2022-12-10T00:48:22;96766.78;;;6.35;100.00
8061;BME280;4073;42.626;25.386;2022-12-10T00:50:58;96773.94;;;6.34;100.00
8061;BME280;4073;42.626;25.386;2022-12-10T00:53:25;96762.53;;;6.34;100.00
8061;BME280;4073;42.626;25.386;2022-12-10T00:55:51;96760.91;;;6.33;100.00
8061;BME280;4073;42.626;25.386;2022-12-10T00:58:17;96761.41;;;6.30;100.00
8061;BME280;4073;42.626;25.386;2022-12-10T01:00:42;96756.41;;;6.33;100.00
8061;BME280;4073;42.626;25.386;2022-12-10T01:03:08;96761.72;;;6.33;100.00
8061;BME280;4073;42.626;25.386;2022-12-10T01:05:33;96764.91;;;6.35;100.00
8061;BME280;4073;42.626;25.386;2022-12-10T01:07:58;96770.22;;;6.35;100.00
8061;BME280;4073;42.626;25.386;2022-12-10T01:10:24;96764.03;;;6.25;100.00
8061;BME280;4073;42.626;25.386;2022-12-10T01:12:49;96763.47;;;6.18;100.00
8061;BME280;4073;42.626;25.386;2022-12-10T01:15:15;96760.50;;;6.14;100.00
8061;BME280;4073;42.626;25.386;2022-12-10T01:17:40;96762.88;;;6.11;100.00
8061;BME280;4073;42.626;25.386;2022-12-10T01:20:06;96753.09;;;6.16;100.00
8061;BME280;4073;42.626;25.386;2022-12-10T01:22:31;96755.78;;;6.21;100.00
8061;BME280;4073;42.626;25.386;2022-12-10T01:24:57;96745.06;;;6.11;100.00
8061;BME280;4073;42.626;25.386;2022-12-10T01:27:22;96750.69;;;6.15;100.00
8061;BME280;4073;42.626;25.386;2022-12-10T01:29:48;96753.09;;;6.16;100.00
8061;BME280;4073;42.626;25.386;2022-12-10T01:32:13;96743.72;;;6.09;100.00
8061;BME280;4073;42.626;25.386;2022-12-10T01:34:39;96750.44;;;6.16;100.00
8061;BME280;4073;42.626;25.386;2022-12-10T01:37:04;96748.59;;;6.17;100.00
8061;BME280;4073;42.626;25.386;2022-12-10T01:39:30;96749.88;;;6.14;100.00
8061;BME280;4073;42.626;25.386;2022-12-10T01:41:58;96742.97;;;6.13;100.00
8061;BME280;4073;42.626;25.386;2022-12-10T01:46:52;96734.19;;;6.08;100.00
8061;BME280;4073;42.626;25.386;2022-12-10T01:49:24;96740.22;;;5.98;100.00
8061;BME280;4073;42.626;25.386;2022-12-10T01:51:53;96745.53;;;5.98;100.00
8061;BME280;4073;42.626;25.386;2022-12-10T01:54:24;96752.88;;;5.91;100.00
8061;BME280;4073;42.626;25.386;2022-12-10T01:56:58;96747.84;;;5.90;100.00
8061;BME280;4073;42.626;25.386;2022-12-10T01:59:24;96748.88;;;5.89;100.00
8061;BME280;4073;42.626;25.386;2022-12-10T02:12:29;96727.47;;;5.74;100.00
8061;BME280;4073;42.626;25.386;2022-12-10T02:14:59;96733.38;;;5.81;100.00
8061;BME280;4073;42.626;25.386;2022-12-10T02:17:37;96728.63;;;5.83;100.00
8061;BME280;4073;42.626;25.386;2022-12-10T02:20:19;96713.47;;;5.78;100.00
8061;BME280;4073;42.626;25.386;2022-12-10T02:22:54;96724.97;;;5.84;100.00
8061;BME280;4073;42.626;25.386;2022-12-10T02:25:26;96721.00;;;5.86;100.00
8061;BME280;4073;42.626;25.386;2022-12-10T02:30:34;96712.78;;;5.88;100.00
8061;BME280;4073;42.626;25.386;2022-12-10T02:33:03;96700.59;;;5.92;100.00
8061;BME280;4073;42.626;25.386;2022-12-10T02:35:33;96696.13;;;5.97;100.00
8061;BME280;4073;42.626;25.386;2022-12-10T02:38:08;96692.16;;;5.95;100.00
8061;BME280;4073;42.626;25.386;2022-12-10T02:40:36;96696.38;;;5.96;100.00
8061;BME280;4073;42.626;25.386;2022-12-10T02:43:03;96700.09;;;5.95;100.00
8061;BME280;4073;42.626;25.386;2022-12-10T02:45:30;96700.91;;;5.95;100.00
8061;BME280;4073;42.626;25.386;2022-12-10T02:47:58;96693.75;;;5.96;100.00
8061;BME280;4073;42.626;25.386;2022-12-10T02:50:24;96699.09;;;6.01;100.00
8061;BME280;4073;42.626;25.386;2022-12-10T02:52:50;96685.03;;;6.00;100.00
8061;BME280;4073;42.626;25.386;2022-12-10T02:55:17;96685.59;;;6.02;100.00
8061;BME280;4073;42.626;25.386;2022-12-10T03:00:21;96697.56;;;6.10;100.00
8061;BME280;4073;42.626;25.386;2022-12-10T03:13:25;96674.66;;;5.99;100.00
8061;BME280;4073;42.626;25.386;2022-12-10T03:15:53;96681.91;;;6.08;100.00
8061;BME280;4073;42.626;25.386;2022-12-10T03:18:23;96676.88;;;6.12;100.00
8061;BME280;4073;42.626;25.386;2022-12-10T03:20:51;96682.50;;;6.15;100.00
8061;BME280;4073;42.626;25.386;2022-12-10T03:23:19;96680.09;;;6.14;100.00
8061;BME280;4073;42.626;25.386;2022-12-10T03:25:47;96688.34;;;6.17;100.00
8061;BME280;4073;42.626;25.386;2022-12-10T03:28:14;96677.66;;;6.07;100.00
8061;BME280;4073;42.626;25.386;2022-12-10T03:30:42;96657.16;;;6.03;100.00
8061;BME280;4073;42.626;25.386;2022-12-10T03:33:08;96672.34;;;6.07;100.00
8061;BME280;4073;42.626;25.386;2022-12-10T03:35:34;96684.28;;;6.10;100.00
8061;BME280;4073;42.626;25.386;2022-12-10T03:38:00;96684.81;;;6.07;100.00
8061;BME280;4073;42.626;25.386;2022-12-10T03:40:26;96678.69;;;6.06;100.00
8061;BME280;4073;42.626;25.386;2022-12-10T03:42:51;96675.50;;;6.04;100.00
8061;BME280;4073;42.626;25.386;2022-12-10T03:45:17;96675.22;;;6.01;100.00
8061;BME280;4073;42.626;25.386;2022-12-10T03:47:43;96667.00;;;6.02;100.00
8061;BME280;4073;42.626;25.386;2022-12-10T03:50:09;96656.81;;;5.89;100.00
8061;BME280;4073;42.626;25.386;2022-12-10T03:52:35;96667.50;;;5.99;100.00
8061;BME280;4073;42.626;25.386;2022-12-10T03:55:00;96668.91;;;6.07;100.00
8061;BME280;4073;42.626;25.386;2022-12-10T03:57:26;96676.63;;;6.13;100.00
8061;BME280;4073;42.626;25.386;2022-12-10T03:59:52;96675.81;;;6.13;100.00
8061;BME280;4073;42.626;25.386;2022-12-10T04:02:17;96661.78;;;6.17;100.00
8061;BME280;4073;42.626;25.386;2022-12-10T04:04:43;96661.28;;;6.20;100.00
8061;BME280;4073;42.626;25.386;2022-12-10T04:07:08;96663.94;;;6.20;100.00
8061;BME280;4073;42.626;25.386;2022-12-10T04:09:34;96660.53;;;6.25;100.00
8061;BME280;4073;42.626;25.386;2022-12-10T04:11:59;96666.91;;;6.29;100.00
8061;BME280;4073;42.626;25.386;2022-12-10T04:14:26;96655.03;;;6.36;100.00
8061;BME280;4073;42.626;25.386;2022-12-10T04:17:10;96645.22;;;6.42;100.00
8061;BME280;4073;42.626;25.386;2022-12-10T04:19:36;96660.91;;;6.43;100.00
8061;BME280;4073;42.626;25.386;2022-12-10T04:22:02;96663.28;;;6.45;100.00
8061;BME280;4073;42.626;25.386;2022-12-10T04:24:46;96673.66;;;6.46;100.00
8061;BME280;4073;42.626;25.386;2022-12-10T04:27:32;96660.34;;;6.41;100.00
8061;BME280;4073;42.626;25.386;2022-12-10T04:29:59;96677.34;;;6.45;100.00
8061;BME280;4073;42.626;25.386;2022-12-10T04:32:27;96661.97;;;6.47;100.00
8061;BME280;4073;42.626;25.386;2022-12-10T04:34:53;96657.75;;;6.51;100.00
8061;BME280;4073;42.626;25.386;2022-12-10T04:37:19;96659.06;;;6.49;100.00
8061;BME280;4073;42.626;25.386;2022-12-10T04:39:45;96667.03;;;6.49;100.00
8061;BME280;4073;42.626;25.386;2022-12-10T04:42:11;96654.53;;;6.44;100.00
8061;BME280;4073;42.626;25.386;2022-12-10T04:44:37;96657.19;;;6.44;100.00
8061;BME280;4073;42.626;25.386;2022-12-10T04:47:05;96654.00;;;6.47;100.00
8061;BME280;4073;42.626;25.386;2022-12-10T04:49:31;96650.03;;;6.45;100.00
8061;BME280;4073;42.626;25.386;2022-12-10T04:51:56;96644.97;;;6.48;100.00
8061;BME280;4073;42.626;25.386;2022-12-10T04:54:22;96655.91;;;6.52;100.00
8061;BME280;4073;42.626;25.386;2022-12-10T04:56:47;96654.56;;;6.54;100.00
8061;BME280;4073;42.626;25.386;2022-12-10T04:59:15;96645.53;;;6.55;100.00
8061;BME280;4073;42.626;25.386;2022-12-10T05:01:40;96641.03;;;6.51;100.00
8061;BME280;4073;42.626;25.386;2022-12-10T05:04:07;96652.97;;;6.53;100.00
8061;BME280;4073;42.626;25.386;2022-12-10T05:06:34;96654.56;;;6.54;100.00
8061;BME280;4073;42.626;25.386;2022-12-10T05:08:59;96647.94;;;6.57;100.00
8061;BME280;4073;42.626;25.386;2022-12-10T05:11:27;96651.16;;;6.59;100.00
8061;BME280;4073;42.626;25.386;2022-12-10T05:13:54;96647.69;;;6.58;100.00
8061;BME280;4073;42.626;25.386;2022-12-10T05:16:21;96649.56;;;6.63;100.00
8061;BME280;4073;42.626;25.386;2022-12-10T05:18:47;96645.53;;;6.55;100.00
8061;BME280;4073;42.626;25.386;2022-12-10T05:21:15;96639.75;;;6.63;100.00
8061;BME280;4073;42.626;25.386;2022-12-10T05:23:44;96647.97;;;6.67;100.00
8061;BME280;4073;42.626;25.386;2022-12-10T05:26:11;96649.59;;;6.68;100.00
8061;BME280;4073;42.626;25.386;2022-12-10T05:28:40;96650.13;;;6.70;100.00
8061;BME280;4073;42.626;25.386;2022-12-10T05:31:18;96656.25;;;6.70;100.00
8061;BME280;4073;42.626;25.386;2022-12-10T05:33:45;96662.09;;;6.72;100.00
8061;BME280;4073;42.626;25.386;2022-12-10T05:36:13;96667.41;;;6.72;100.00
8061;BME280;4073;42.626;25.386;2022-12-10T05:38:39;96674.31;;;6.73;100.00
8061;BME280;4073;42.626;25.386;2022-12-10T05:41:09;96661.56;;;6.75;100.00
8061;BME280;4073;42.626;25.386;2022-12-10T05:43:36;96654.41;;;6.76;100.00
8061;BME280;4073;42.626;25.386;2022-12-10T05:46:03;96657.63;;;6.78;100.00
8061;BME280;4073;42.626;25.386;2022-12-10T05:48:29;96655.75;;;6.78;100.00
8061;BME280;4073;42.626;25.386;2022-12-10T05:50:55;96652.56;;;6.81;100.00
8061;BME280;4073;42.626;25.386;2022-12-10T05:53:21;96656.81;;;6.82;100.00
8061;BME280;4073;42.626;25.386;2022-12-10T05:55:46;96661.88;;;6.84;100.00
8061;BME280;4073;42.626;25.386;2022-12-10T05:58:12;96662.13;;;6.82;100.00
8061;BME280;4073;42.626;25.386;2022-12-10T06:00:40;96660.03;;;6.84;100.00
8061;BME280;4073;42.626;25.386;2022-12-10T06:03:07;96655.53;;;6.85;100.00
8061;BME280;4073;42.626;25.386;2022-12-10T06:05:39;96649.66;;;6.88;100.00
8061;BME280;4073;42.626;25.386;2022-12-10T06:08:06;96649.66;;;6.88;100.00
8061;BME280;4073;42.626;25.386;2022-12-10T06:10:34;96644.63;;;6.91;100.00
8061;BME280;4073;42.626;25.386;2022-12-10T06:13:01;96646.75;;;6.89;100.00
8061;BME280;4073;42.626;25.386;2022-12-10T06:15:26;96651.03;;;6.95;100.00
8061;BME280;4073;42.626;25.386;2022-12-10T06:17:51;96645.75;;;7.00;100.00
8061;BME280;4073;42.626;25.386;2022-12-10T06:20:19;96651.59;;;7.07;100.00
8061;BME280;4073;42.626;25.386;2022-12-10T06:22:44;96641.50;;;7.09;100.00
8061;BME280;4073;42.626;25.386;2022-12-10T06:25:09;96640.44;;;7.15;100.00
8061;BME280;4073;42.626;25.386;2022-12-10T06:27:35;96644.44;;;7.18;100.00
8061;BME280;4073;42.626;25.386;2022-12-10T06:30:01;96632.50;;;7.20;100.00
8061;BME280;4073;42.626;25.386;2022-12-10T06:32:27;96638.63;;;7.31;100.00
8061;BME280;4073;42.626;25.386;2022-12-10T06:34:52;96659.09;;;7.35;100.00
8061;BME280;4073;42.626;25.386;2022-12-10T06:37:18;96643.41;;;7.29;100.00
8061;BME280;4073;42.626;25.386;2022-12-10T06:39:43;96641.59;;;7.44;100.00
8061;BME280;4073;42.626;25.386;2022-12-10T06:42:09;96641.31;;;7.51;100.00
8061;BME280;4073;42.626;25.386;2022-12-10T06:44:34;96636.25;;;7.69;100.00
8061;BME280;4073;42.626;25.386;2022-12-10T06:47:00;96635.72;;;7.87;100.00
8061;BME280;4073;42.626;25.386;2022-12-10T06:49:25;96634.66;;;8.09;100.00
8061;BME280;4073;42.626;25.386;2022-12-10T06:51:50;96641.84;;;8.23;100.00
8061;BME280;4073;42.626;25.386;2022-12-10T06:54:16;96640.53;;;8.26;100.00
8061;BME280;4073;42.626;25.386;2022-12-10T06:56:41;96635.69;;;8.18;100.00
8061;BME280;4073;42.626;25.386;2022-12-10T06:59:07;96643.44;;;8.14;100.00
8061;BME280;4073;42.626;25.386;2022-12-10T07:01:33;96620.53;;;8.03;100.00
8061;BME280;4073;42.626;25.386;2022-12-10T07:03:59;96631.19;;;8.08;100.00
8061;BME280;4073;42.626;25.386;2022-12-10T07:06:26;96636.75;;;8.12;100.00
8061;BME280;4073;42.626;25.386;2022-12-10T07:08:53;96633.84;;;8.13;100.00
8061;BME280;4073;42.626;25.386;2022-12-10T07:11:20;96626.91;;;8.27;100.00
8061;BME280;4073;42.626;25.386;2022-12-10T07:13:47;96626.13;;;8.37;100.00
8061;BME280;4073;42.626;25.386;2022-12-10T07:16:14;96637.28;;;8.44;100.00
8061;BME280;4073;42.626;25.386;2022-12-10T07:18:39;96629.78;;;8.61;100.00
8061;BME280;4073;42.626;25.386;2022-12-10T07:21:15;96635.53;;;8.88;100.00
8061;BME280;4073;42.626;25.386;2022-12-10T07:23:41;96641.28;;;9.10;100.00
8061;BME280;4073;42.626;25.386;2022-12-10T07:26:07;96650.78;;;9.26;100.00
8061;BME280;4073;42.626;25.386;2022-12-10T07:28:33;96643.06;;;9.29;100.00
8061;BME280;4073;42.626;25.386;2022-12-10T07:31:06;96643.28;;;9.38;100.00
8061;BME280;4073;42.626;25.386;2022-12-10T07:33:32;96637.63;;;9.39;100.00
8061;BME280;4073;42.626;25.386;2022-12-10T07:35:58;96628.34;;;9.32;100.00
8061;BME280;4073;42.626;25.386;2022-12-10T07:38:24;96635.31;;;9.28;100.00
8061;BME280;4073;42.626;25.386;2022-12-10T07:40:51;96638.53;;;9.25;100.00
8061;BME280;4073;42.626;25.386;2022-12-10T07:43:17;96626.03;;;9.20;100.00
8061;BME280;4073;42.626;25.386;2022-12-10T07:45:43;96623.66;;;9.14;100.00
8061;BME280;4073;42.626;25.386;2022-12-10T07:48:09;96613.03;;;9.09;100.00
8061;BME280;4073;42.626;25.386;2022-12-10T07:50:35;96620.72;;;9.15;100.00
8061;BME280;4073;42.626;25.386;2022-12-10T07:53:00;96621.50;;;9.21;100.00
8061;BME280;4073;42.626;25.386;2022-12-10T07:55:26;96602.53;;;9.22;100.00
8061;BME280;4073;42.626;25.386;2022-12-10T07:57:51;96605.38;;;9.36;100.00
8061;BME280;4073;42.626;25.386;2022-12-10T08:00:17;96606.84;;;9.57;100.00
8061;BME280;4073;42.626;25.386;2022-12-10T08:02:42;96613.94;;;9.71;100.00
8061;BME280;4073;42.626;25.386;2022-12-10T08:05:08;96623.63;;;9.91;100.00
8061;BME280;4073;42.626;25.386;2022-12-10T08:07:34;96606.97;;;10.04;100.00
8061;BME280;4073;42.626;25.386;2022-12-10T08:09:59;96618.91;;;10.16;100.00
8061;BME280;4073;42.626;25.386;2022-12-10T08:12:25;96621.09;;;10.38;100.00
8061;BME280;4073;42.626;25.386;2022-12-10T08:14:50;96610.75;;;10.55;100.00
8061;BME280;4073;42.626;25.386;2022-12-10T08:17:15;96606.38;;;10.64;100.00
8061;BME280;4073;42.626;25.386;2022-12-10T08:19:41;96600.69;;;10.71;100.00
8061;BME280;4073;42.626;25.386;2022-12-10T08:22:07;96608.84;;;10.79;100.00
8061;BME280;4073;42.626;25.386;2022-12-10T08:24:32;96610.13;;;10.87;100.00
8061;BME280;4073;42.626;25.386;2022-12-10T08:26:58;96615.38;;;10.92;100.00
8061;BME280;4073;42.626;25.386;2022-12-10T08:29:23;96611.03;;;10.96;100.00
8061;BME280;4073;42.626;25.386;2022-12-10T08:31:49;96612.72;;;11.10;100.00
8061;BME280;4073;42.626;25.386;2022-12-10T08:34:17;96610.06;;;11.29;100.00
8061;BME280;4073;42.626;25.386;2022-12-10T08:36:43;96600.78;;;12.54;100.00
8061;BME280;4073;42.626;25.386;2022-12-10T08:39:09;96614.19;;;14.54;100.00
8061;BME280;4073;42.626;25.386;2022-12-10T08:41:43;96622.63;;;17.29;100.00
8061;BME280;4073;42.626;25.386;2022-12-10T08:44:08;96616.47;;;19.12;77.62
8061;BME280;4073;42.626;25.386;2022-12-10T08:46:34;96619.03;;;20.35;70.57
8061;BME280;4073;42.626;25.386;2022-12-10T08:49:00;96605.91;;;21.46;65.96
8061;BME280;4073;42.626;25.386;2022-12-10T08:51:26;96593.69;;;21.90;62.16
8061;BME280;4073;42.626;25.386;2022-12-10T08:53:51;96592.19;;;22.12;60.92
8061;BME280;4073;42.626;25.386;2022-12-10T08:56:17;96582.91;;;23.00;57.46
8061;BME280;4073;42.626;25.386;2022-12-10T08:58:42;96577.81;;;22.98;57.24
8061;BME280;4073;42.626;25.386;2022-12-10T09:01:10;96578.97;;;22.33;58.77
8061;BME280;4073;42.626;25.386;2022-12-10T09:03:36;96588.66;;;22.30;58.86
8061;BME280;4073;42.626;25.386;2022-12-10T09:06:07;96585.53;;;21.90;60.80
8061;BME280;4073;42.626;25.386;2022-12-10T09:08:33;96586.25;;;20.87;63.17
8061;BME280;4073;42.626;25.386;2022-12-10T09:11:05;96579.88;;;19.81;67.29
8061;BME280;4073;42.626;25.386;2022-12-10T09:13:31;96571.28;;;20.19;66.79
8061;BME280;4073;42.626;25.386;2022-12-10T09:15:56;96557.06;;;21.50;63.37
8061;BME280;4073;42.626;25.386;2022-12-10T09:18:21;96557.06;;;22.67;58.56
8061;BME280;4073;42.626;25.386;2022-12-10T09:20:47;96561.66;;;23.90;54.31
8061;BME280;4073;42.626;25.386;2022-12-10T09:23:12;96568.50;;;24.40;52.83
8061;BME280;4073;42.626;25.386;2022-12-10T09:25:38;96554.66;;;25.02;51.04
8061;BME280;4073;42.626;25.386;2022-12-10T09:28:03;96554.09;;;25.98;49.03
8061;BME280;4073;42.626;25.386;2022-12-10T09:30:29;96549.34;;;25.95;48.23
8061;BME280;4073;42.626;25.386;2022-12-10T09:32:54;96546.41;;;24.95;49.80
8061;BME280;4073;42.626;25.386;2022-12-10T09:35:19;96538.66;;;22.84;55.69
8061;BME280;4073;42.626;25.386;2022-12-10T09:37:45;96511.47;;;22.42;58.64
8061;BME280;4073;42.626;25.386;2022-12-10T09:40:39;96513.72;;;22.17;58.49
8061;BME280;4073;42.626;25.386;2022-12-10T09:43:28;96511.25;;;22.09;58.93
8061;BME280;4073;42.626;25.386;2022-12-10T09:46:23;96505.50;;;22.78;57.59
8061;BME280;4073;42.626;25.386;2022-12-10T09:49:02;96501.38;;;23.73;54.64
8061;BME280;4073;42.626;25.386;2022-12-10T09:51:36;96495.63;;;23.81;55.14
8061;BME280;4073;42.626;25.386;2022-12-10T09:54:24;96493.78;;;23.89;55.04
8061;BME280;4073;42.626;25.386;2022-12-10T09:56:50;96486.25;;;23.79;54.89
8061;BME280;4073;42.626;25.386;2022-12-10T10:02:10;96471.09;;;22.96;57.39
8061;BME280;4073;42.626;25.386;2022-12-10T10:04:41;96463.97;;;22.39;58.95
8061;BME280;4073;42.626;25.386;2022-12-10T10:07:17;96456.44;;;22.10;60.42
8061;BME280;4073;42.626;25.386;2022-12-10T10:09:44;96458.78;;;21.89;61.54
8061;BME280;4073;42.626;25.386;2022-12-10T10:12:13;96463.66;;;21.42;62.50
8061;BME280;4073;42.626;25.386;2022-12-10T10:14:40;96454.06;;;21.10;64.69
8061;BME280;4073;42.626;25.386;2022-12-10T10:17:16;96447.22;;;20.85;66.27
8061;BME280;4073;42.626;25.386;2022-12-10T10:19:44;96437.91;;;20.67;66.53
8061;BME280;4073;42.626;25.386;2022-12-10T10:22:10;96433.13;;;20.61;66.94
8061;BME280;4073;42.626;25.386;2022-12-10T10:24:40;96438.19;;;20.47;66.93
8061;BME280;4073;42.626;25.386;2022-12-10T10:27:28;96432.69;;;20.43;67.29
8061;BME280;4073;42.626;25.386;2022-12-10T10:29:56;96428.78;;;20.75;65.47
8061;BME280;4073;42.626;25.386;2022-12-10T10:32:28;96421.56;;;20.83;65.29
8061;BME280;4073;42.626;25.386;2022-12-10T10:35:33;96419.69;;;20.68;66.03
8061;BME280;4073;42.626;25.386;2022-12-10T10:38:07;96423.66;;;20.55;65.91
8061;BME280;4073;42.626;25.386;2022-12-10T10:40:43;96401.78;;;20.48;67.08
8061;BME280;4073;42.626;25.386;2022-12-10T10:43:24;96405.13;;;20.76;66.69
8061;BME280;4073;42.626;25.386;2022-12-10T10:45:58;96410.41;;;20.88;65.25
8061;BME280;4073;42.626;25.386;2022-12-10T10:48:26;96409.34;;;20.73;66.36
8061;BME280;4073;42.626;25.386;2022-12-10T10:50:55;96395.31;;;21.06;65.44
8061;BME280;4073;42.626;25.386;2022-12-10T10:53:39;96394.19;;;21.07;66.06
8061;BME280;4073;42.626;25.386;2022-12-10T10:56:17;96390.31;;;21.08;65.69
8061;BME280;4073;42.626;25.386;2022-12-10T11:01:48;96387.03;;;20.99;66.29
8061;BME280;4073;42.626;25.386;2022-12-10T11:04:16;96383.53;;;21.17;65.84
8061;BME280;4073;42.626;25.386;2022-12-10T11:06:43;96375.88;;;21.23;66.04
8061;BME280;4073;42.626;25.386;2022-12-10T11:09:21;96383.38;;;21.29;66.11
8061;BME280;4073;42.626;25.386;2022-12-10T11:11:52;96377.75;;;21.19;65.70
8061;BME280;4073;42.626;25.386;2022-12-10T11:14:28;96374.81;;;21.27;66.01
8061;BME280;4073;42.626;25.386;2022-12-10T11:17:11;96370.75;;;21.40;66.00
8061;BME280;4073;42.626;25.386;2022-12-10T11:19:44;96365.09;;;21.49;65.91
8061;BME280;4073;42.626;25.386;2022-12-10T11:22:23;96364.25;;;21.45;65.91
8061;BME280;4073;42.626;25.386;2022-12-10T11:24:49;96358.78;;;21.64;65.29
8061;BME280;4073;42.626;25.386;2022-12-10T11:30:06;96346.88;;;21.72;65.23
8061;BME280;4073;42.626;25.386;2022-12-10T11:35:24;96343.28;;;21.87;63.81
8061;BME280;4073;42.626;25.386;2022-12-10T11:46:11;96352.72;;;20.09;70.64
8061;BME280;4073;42.626;25.386;2022-12-10T11:57:16;96322.09;;;19.31;75.58
8061;BME280;4073;42.626;25.386;2022-12-10T12:00:24;96329.19;;;19.36;75.16
8061;BME280;4073;42.626;25.386;2022-12-10T12:03:15;96336.22;;;19.25;76.10
8061;BME280;4073;42.626;25.386;2022-12-10T12:08:54;96316.25;;;18.62;79.39
8061;BME280;4073;42.626;25.386;2022-12-10T12:17:33;96291.16;;;18.50;79.06
8061;BME280;4073;42.626;25.386;2022-12-10T12:20:05;96271.56;;;18.29;80.03
8061;BME280;4073;42.626;25.386;2022-12-10T12:22:44;96267.22;;;18.00;81.93
8061;BME280;4073;42.626;25.386;2022-12-10T12:25:24;96265.09;;;17.81;82.87
8061;BME280;4073;42.626;25.386;2022-12-10T12:27:57;96266.34;;;17.72;83.46
8061;BME280;4073;42.626;25.386;2022-12-10T12:30:25;96258.69;;;17.62;85.13
8061;BME280;4073;42.626;25.386;2022-12-10T12:35:55;96261.94;;;17.43;86.50
8061;BME280;4073;42.626;25.386;2022-12-10T12:41:04;96259.75;;;17.25;88.60
8061;BME280;4073;42.626;25.386;2022-12-10T12:46:01;96255.31;;;17.08;90.27
8061;BME280;4073;42.626;25.386;2022-12-10T12:51:38;96267.75;;;16.89;92.25
8061;BME280;4073;42.626;25.386;2022-12-10T12:54:09;96262.13;;;16.82;92.94
8061;BME280;4073;42.626;25.386;2022-12-10T12:57:05;96264.66;;;16.78;93.11
8061;BME280;4073;42.626;25.386;2022-12-10T13:05:24;96276.00;;;16.72;94.88
8061;BME280;4073;42.626;25.386;2022-12-10T13:10:53;96271.81;;;16.62;96.49
8061;BME280;4073;42.626;25.386;2022-12-10T13:13:27;96261.13;;;16.54;97.25
8061;BME280;4073;42.626;25.386;2022-12-10T13:15:54;96258.16;;;16.47;97.61
8061;BME280;4073;42.626;25.386;2022-12-10T13:18:42;96239.75;;;16.40;98.90
8061;BME280;4073;42.626;25.386;2022-12-10T13:24:09;96249.38;;;16.09;100.00
8061;BME280;4073;42.626;25.386;2022-12-10T13:26:35;96244.88;;;15.92;100.00
8061;BME280;4073;42.626;25.386;2022-12-10T13:29:22;96249.34;;;15.88;100.00
8061;BME280;4073;42.626;25.386;2022-12-10T13:32:03;96242.91;;;15.81;100.00
8061;BME280;4073;42.626;25.386;2022-12-10T13:34:35;96246.88;;;15.75;100.00
8061;BME280;4073;42.626;25.386;2022-12-10T13:39:34;96255.97;;;15.70;100.00
8061;BME280;4073;42.626;25.386;2022-12-10T13:45:05;96261.53;;;15.65;100.00
8061;BME280;4073;42.626;25.386;2022-12-10T13:50:04;96260.66;;;15.52;100.00
8061;BME280;4073;42.626;25.386;2022-12-10T13:58:31;96243.63;;;15.31;100.00
8061;BME280;4073;42.626;25.386;2022-12-10T14:01:42;96240.97;;;15.23;100.00
8061;BME280;4073;42.626;25.386;2022-12-10T14:06:39;96236.56;;;15.10;100.00
8061;BME280;4073;42.626;25.386;2022-12-10T14:09:12;96214.63;;;14.91;100.00
8061;BME280;4073;42.626;25.386;2022-12-10T14:11:43;96226.00;;;14.96;100.00
8061;BME280;4073;42.626;25.386;2022-12-10T14:14:13;96230.13;;;14.94;100.00
8061;BME280;4073;42.626;25.386;2022-12-10T14:16:41;96217.00;;;14.92;100.00
8061;BME280;4073;42.626;25.386;2022-12-10T14:19:12;96205.94;;;14.85;100.00
8061;BME280;4073;42.626;25.386;2022-12-10T14:21:40;96211.50;;;14.80;100.00
8061;BME280;4073;42.626;25.386;2022-12-10T14:24:29;96218.16;;;14.74;100.00
8061;BME280;4073;42.626;25.386;2022-12-10T14:26:58;96227.97;;;14.70;100.00
8061;BME280;4073;42.626;25.386;2022-12-10T14:29:23;96224.69;;;14.65;100.00
8061;BME280;4073;42.626;25.386;2022-12-10T14:31:50;96203.94;;;14.57;100.00
8061;BME280;4073;42.626;25.386;2022-12-10T14:34:23;96197.81;;;14.48;100.00
8061;BME280;4073;42.626;25.386;2022-12-10T14:36:54;96199.22;;;14.45;100.00
8061;BME280;4073;42.626;25.386;2022-12-10T14:39:25;96194.16;;;14.35;100.00
8061;BME280;4073;42.626;25.386;2022-12-10T14:41:54;96185.47;;;14.21;100.00
8061;BME280;4073;42.626;25.386;2022-12-10T14:44:21;96206.97;;;14.21;100.00
8061;BME280;4073;42.626;25.386;2022-12-10T14:46:48;96194.97;;;14.19;100.00
8061;BME280;4073;42.626;25.386;2022-12-10T14:49:26;96184.22;;;14.10;100.00
8061;BME280;4073;42.626;25.386;2022-12-10T14:51:51;96188.31;;;14.08;100.00
8061;BME280;4073;42.626;25.386;2022-12-10T14:54:44;96198.44;;;14.02;100.00
8061;BME280;4073;42.626;25.386;2022-12-10T14:57:32;96184.69;;;14.04;100.00
8061;BME280;4073;42.626;25.386;2022-12-10T15:00:11;96189.59;;;14.02;100.00
8061;BME280;4073;42.626;25.386;2022-12-10T15:02:41;96179.47;;;13.90;100.00
8061;BME280;4073;42.626;25.386;2022-12-10T15:05:19;96184.84;;;13.90;100.00
8061;BME280;4073;42.626;25.386;2022-12-10T15:10:23;96194.81;;;13.81;100.00